• Join FlightAware (Why Join?)
  • Login
  • US Flag 
12:34PM EDT


 

Airport Tracker/Info


-or-


 

Live Flight TrackerFlight Track Log ✈ N1926A ✈ 25-Jun-2013 ✈ KEKX - 41A

Flight Track Log - Related Links

Times and Time Zones

All times are in EDT time to prevent confusion due to time zone crossing. See the N1926A flight status page for this flight to view local times or setup timezone preferences in your user account.

Time Position Orientation Groundspeed Altitude Reporting Facility
EDT Latitude Longitude Course Direction KTS MPH feet Rate Location/Type
04:51PM 37.6736 -85.9911 263° West 153 176 3,600  Level Indianapolis Center
04:52PM 37.6686 -86.0444 263° West 153 176 6,100 2,280 Climbing Indianapolis Center
04:54PM 37.6286 -86.0472 183° South 151 174 8,400 1,920 Climbing Indianapolis Center
04:55PM 37.5825 -86.0431 176° South 165 190 10,100 1,800 Climbing Indianapolis Center
04:56PM 37.5217 -86.0400 178° South 193 222 12,200 1,920 Climbing Indianapolis Center
04:57PM 37.4683 -86.0372 178° South 192 221 14,100 1,980 Climbing Indianapolis Center
04:58PM 37.4203 -86.0328 176° South 175 201 16,300 1,380 Climbing Indianapolis Center
04:59PM 37.3658 -86.0306 178° South 192 221 17,000 300 Climbing Indianapolis Center
05:00PM 37.2950 -86.0086 166° South 253 291 17,000  Level Indianapolis Center
05:01PM 37.2058 -85.9772 164° South 279 321 17,000  Level Indianapolis Center
05:02PM 37.1283 -85.9781 180° South 277 319 17,000  Level Indianapolis Center
05:03PM 37.0494 -85.9811 182° South 279 321 17,000  Level Indianapolis Center
05:04PM 36.9714 -85.9867 183° South 278 320 17,000 240 Level Indianapolis Center
05:05PM 36.8931 -85.9897 182° South 278 320 17,500 1,020 Climbing Indianapolis Center
05:06PM 36.8261 -85.9900 180° South 245 282 19,200 1,260 Climbing Indianapolis Center
05:07PM 36.7614 -85.9881 179° South 233 268 20,200 960 Climbing Indianapolis Center
05:08PM 36.6917 -85.9847 178° South 245 282 21,200 960 Climbing Indianapolis Center
05:09PM 36.6244 -85.9800 177° South 241 277 22,200 1,200 Climbing Indianapolis Center
05:10PM 36.5464 -85.9739 176° South 239 275 23,800 1,140 Climbing Indianapolis Center
05:12PM 36.4103 -85.9708 179° South 228 262 26,000 660 Climbing Memphis Center
05:13PM 36.3414 -85.9694 179° South 240 276 26,000  Level Memphis Center
05:14PM 36.2686 -85.9681 179° South 260 299 26,000  Level Memphis Center
05:15PM 36.1892 -85.9672 180° South 276 318 26,000  Level Memphis Center
05:16PM 36.1119 -85.9661 179° South 281 323 26,000  Level Memphis Center
05:17PM 36.0433 -85.9647 179° South 281 323 26,000  Level Memphis Center
05:19PM 35.8911 -85.9586 178° South 276 318 26,000  Level Atlanta Center
05:20PM 35.8056 -85.9592 180° South 276 318 26,000  Level Atlanta Center
05:22PM 35.7173 -85.9399 170° South  Level FlightAware Approximate
05:22PM 35.6492 -85.9528 170° South 281 323 26,000  Level Atlanta Center
05:23PM 35.5700 -85.9511 179° South 281 323 26,000  Level Atlanta Center
05:24PM 35.4928 -85.9519 181° South 281 323 26,000  Level Atlanta Center
05:25PM 35.4156 -85.9475 177° South 287 330 26,000  Level Atlanta Center
05:26PM 35.3383 -85.9456 179° South 287 330 26,000  Level Atlanta Center
05:27PM 35.2611 -85.9464 181° South 282 325 26,000  Level Atlanta Center
05:28PM 35.1903 -85.9447 179° South 282 325 26,000  Level Atlanta Center
05:29PM 35.1069 -85.9403 178° South 282 325 26,000  Level Atlanta Center
05:30PM 35.0297 -85.9361 177° South 282 325 26,000  Level Atlanta Center
05:31PM 34.9525 -85.9344 179° South 282 325 26,000  Level Atlanta Center
05:32PM 34.8836 -85.9328 179° South 282 325 26,000  Level Atlanta Center
05:33PM 34.8044 -85.9308 179° South 282 325 26,000  Level Atlanta Center
05:34PM 34.7253 -85.9292 179° South 282 325 26,000  Level Atlanta Center
05:35PM 34.6458 -85.9275 179° South 287 330 26,000  Level Atlanta Center
05:36PM 34.5686 -85.9283 181° South 287 330 26,000  Level Atlanta Center
05:37PM 34.4917 -85.9239 177° South 287 330 26,000  Level Atlanta Center
05:38PM 34.4103 -85.9222 179° South 287 330 26,000  Level Atlanta Center
05:39PM 34.3331 -85.9178 177° South 287 330 26,000  Level Atlanta Center
05:40PM 34.2536 -85.9161 179° South 287 330 26,000  Level Atlanta Center
05:41PM 34.1744 -85.9144 179° South 287 330 26,000  Level Atlanta Center
05:42PM 34.0914 -85.8900 166° South 282 325 26,000  Level Atlanta Center
05:43PM 34.0253 -85.8433 150° Southeast 270 311 26,000  Level Atlanta Center
05:44PM 33.9653 -85.8022 150° Southeast 277 319 26,000  Level Atlanta Center
05:45PM 33.8883 -85.7906 173° South 270 311 26,000  Level Atlanta Center
05:46PM 33.8108 -85.7989 185° South 275 316 26,000 -420 Level Atlanta Center
05:47PM 33.7275 -85.7997 180° South 290 334 25,200 -900 Descending Atlanta Center
05:48PM 33.6314 -85.8028 182° South 311 358 24,300 360 Descending Atlanta Center
05:49PM 33.5497 -85.8111 185° South 316 364 26,000 840 Climbing Atlanta Center
05:50PM 33.4581 -85.8167 183° South 332 382 26,000  Level Atlanta Center
05:51PM 33.3681 -85.8272 186° South 332 382 26,000  Level Atlanta Center
05:52PM 33.2803 -85.8353 184° South 327 376 26,000  Level Atlanta Center
05:53PM 33.1944 -85.8461 186° South 322 371 26,000  Level Atlanta Center
05:54PM 33.1150 -85.8567 186° South 310 357 26,000  Level Atlanta Center
05:55PM 33.0378 -85.8575 181° South 297 342 26,000  Level Atlanta Center
05:56PM 32.9628 -85.8561 179° South 285 328 26,000  Level Atlanta Center
05:57PM 32.8917 -85.8522 177° South 268 308 26,000  Level Atlanta Center
05:58PM 32.8208 -85.8556 182° South 262 302 26,000  Level Atlanta Center
05:59PM 32.7456 -85.8614 184° South 255 293 26,000  Level Atlanta Center
06:00PM 32.6786 -85.8650 183° South 255 293 26,000  Level Atlanta Center
06:01PM 32.6097 -85.8711 184° South 255 293 26,000  Level Atlanta Center
06:02PM 32.5553 -85.8747 183° South 255 293 26,000  Level Atlanta Center
06:03PM 32.5553 -85.8747 220° Southwest 255 293 26,000  Level Atlanta Center
06:05PM 32.5553 -85.8747 220° Southwest 255 293 26,000  Level Atlanta Center
06:07PM 32.5149 -85.8762 180° South  Level Estimated